Terminal Aerodrome Forecast
Issued by NWS Binghamton, NY

Current Version | Previous Version | Text Only | Print | Product List | Glossary On
Versions: 1 2 3 4 5 6 7 8 9 10 11 12 13 14 15 16 17 18 19 20 21
000
FTUS41 KBGM 251123
TAFAVP
TAF
KAVP 251123Z 2512/2612 VRB03KT P6SM OVC035 WS020/28035KT
     FM251500 VRB04KT P6SM BKN025
      TEMPO 2517/2521 4SM -RA BR BKN009
     FM252100 03004KT 5SM -RA BR OVC009
     FM260200 VRB05KT 5SM BR OVC008=

USA.gov is the U.S. government's official web portal to all federal, state and local government web resources and services.